North Welton, Iowa
Current Conditions -  °F | °C
As of 4:55 PM on Friday 28 Nov 2014 (Local Time) from KCWI Reporting Station
Clear Clear  
Wind Chill: 22°   Ceiling: Unl
Heat Index: 32°   Visibility: 9mi
Dew Point: 27°   Wind: 14mph
Humidity: 80%   Direction: 140°SE
Pressure: 29.92"   Gusts: NA
Location:  41.989°N, 90.6068°W
Report Text: KCWI 282255Z AUTO 14012KT 9SM CLR 00/M03 A2992 RMK AO1
Loading
Personal Weather Stations






























Interactive Weather Map New forecast layout! Learn more

10-Day Weather Forecast

Advertisements
Track Severe Weather on mobile